sensor_id;sensor_type;location;lat;lon;timestamp;P1;durP1;ratioP1;P2;durP2;ratioP2
28760;SDS011;15917;50.014;8.352;2022-11-24T00:01:16;9.55;;;3.17;;
28760;SDS011;15917;50.014;8.352;2022-11-24T00:03:44;15.63;;;3.20;;
28760;SDS011;15917;50.014;8.352;2022-11-24T00:06:11;12.75;;;3.17;;
28760;SDS011;15917;50.014;8.352;2022-11-24T00:08:41;11.98;;;3.10;;
28760;SDS011;15917;50.014;8.352;2022-11-24T00:11:17;15.30;;;2.88;;
28760;SDS011;15917;50.014;8.352;2022-11-24T00:13:44;8.38;;;2.47;;
28760;SDS011;15917;50.014;8.352;2022-11-24T00:16:12;14.68;;;3.60;;
28760;SDS011;15917;50.014;8.352;2022-11-24T00:18:40;22.10;;;2.67;;
28760;SDS011;15917;50.014;8.352;2022-11-24T00:21:07;10.70;;;3.53;;
28760;SDS011;15917;50.014;8.352;2022-11-24T00:23:33;12.10;;;3.28;;
28760;SDS011;15917;50.014;8.352;2022-11-24T00:26:03;13.23;;;3.60;;
28760;SDS011;15917;50.014;8.352;2022-11-24T00:28:34;9.60;;;3.10;;
28760;SDS011;15917;50.014;8.352;2022-11-24T00:31:00;17.17;;;3.70;;
28760;SDS011;15917;50.014;8.352;2022-11-24T00:33:27;21.27;;;3.63;;
28760;SDS011;15917;50.014;8.352;2022-11-24T00:35:56;12.98;;;3.45;;
28760;SDS011;15917;50.014;8.352;2022-11-24T00:38:22;17.15;;;3.65;;
28760;SDS011;15917;50.014;8.352;2022-11-24T00:40:48;20.70;;;3.55;;
28760;SDS011;15917;50.014;8.352;2022-11-24T00:43:14;11.30;;;3.78;;
28760;SDS011;15917;50.014;8.352;2022-11-24T00:45:40;15.32;;;3.17;;
28760;SDS011;15917;50.014;8.352;2022-11-24T00:48:06;14.98;;;3.25;;
28760;SDS011;15917;50.014;8.352;2022-11-24T00:50:32;14.57;;;3.17;;
28760;SDS011;15917;50.014;8.352;2022-11-24T00:52:58;16.63;;;3.08;;
28760;SDS011;15917;50.014;8.352;2022-11-24T00:55:24;22.85;;;3.42;;
28760;SDS011;15917;50.014;8.352;2022-11-24T00:57:49;16.25;;;3.13;;
28760;SDS011;15917;50.014;8.352;2022-11-24T01:00:15;19.42;;;2.95;;
28760;SDS011;15917;50.014;8.352;2022-11-24T01:02:42;15.63;;;2.72;;
28760;SDS011;15917;50.014;8.352;2022-11-24T01:05:08;15.40;;;2.88;;
28760;SDS011;15917;50.014;8.352;2022-11-24T01:07:33;18.83;;;3.45;;
28760;SDS011;15917;50.014;8.352;2022-11-24T01:09:59;18.08;;;3.22;;
28760;SDS011;15917;50.014;8.352;2022-11-24T01:12:25;20.23;;;2.75;;
28760;SDS011;15917;50.014;8.352;2022-11-24T01:14:52;21.02;;;3.42;;
28760;SDS011;15917;50.014;8.352;2022-11-24T01:17:18;12.38;;;3.00;;
28760;SDS011;15917;50.014;8.352;2022-11-24T01:19:44;15.32;;;2.92;;
28760;SDS011;15917;50.014;8.352;2022-11-24T01:22:13;20.35;;;3.20;;
28760;SDS011;15917;50.014;8.352;2022-11-24T01:24:39;12.90;;;3.20;;
28760;SDS011;15917;50.014;8.352;2022-11-24T01:27:05;13.68;;;3.38;;
28760;SDS011;15917;50.014;8.352;2022-11-24T01:29:31;21.27;;;3.35;;
28760;SDS011;15917;50.014;8.352;2022-11-24T01:31:57;21.35;;;4.50;;
28760;SDS011;15917;50.014;8.352;2022-11-24T01:34:23;23.05;;;3.80;;
28760;SDS011;15917;50.014;8.352;2022-11-24T01:36:48;20.70;;;4.28;;
28760;SDS011;15917;50.014;8.352;2022-11-24T01:39:14;12.13;;;3.08;;
28760;SDS011;15917;50.014;8.352;2022-11-24T01:41:40;14.90;;;3.50;;
28760;SDS011;15917;50.014;8.352;2022-11-24T01:44:25;15.35;;;3.28;;
28760;SDS011;15917;50.014;8.352;2022-11-24T01:46:54;16.67;;;3.13;;
28760;SDS011;15917;50.014;8.352;2022-11-24T01:49:37;22.10;;;2.67;;
28760;SDS011;15917;50.014;8.352;2022-11-24T01:52:10;21.75;;;3.42;;
28760;SDS011;15917;50.014;8.352;2022-11-24T01:54:50;14.35;;;3.00;;
28760;SDS011;15917;50.014;8.352;2022-11-24T01:59:58;17.30;;;3.33;;
28760;SDS011;15917;50.014;8.352;2022-11-24T02:02:40;26.83;;;3.28;;
28760;SDS011;15917;50.014;8.352;2022-11-24T02:05:09;18.08;;;2.83;;
28760;SDS011;15917;50.014;8.352;2022-11-24T02:07:45;23.05;;;3.75;;
28760;SDS011;15917;50.014;8.352;2022-11-24T02:10:12;27.15;;;3.53;;
28760;SDS011;15917;50.014;8.352;2022-11-24T02:12:43;20.52;;;2.97;;
28760;SDS011;15917;50.014;8.352;2022-11-24T02:15:11;13.82;;;3.50;;
28760;SDS011;15917;50.014;8.352;2022-11-24T02:17:39;10.95;;;2.97;;
28760;SDS011;15917;50.014;8.352;2022-11-24T02:20:06;21.48;;;3.28;;
28760;SDS011;15917;50.014;8.352;2022-11-24T02:22:48;18.20;;;2.72;;
28760;SDS011;15917;50.014;8.352;2022-11-24T02:28:20;17.20;;;3.10;;
28760;SDS011;15917;50.014;8.352;2022-11-24T02:30:47;14.80;;;3.55;;
28760;SDS011;15917;50.014;8.352;2022-11-24T02:33:14;11.37;;;2.37;;
28760;SDS011;15917;50.014;8.352;2022-11-24T02:35:41;21.15;;;2.85;;
28760;SDS011;15917;50.014;8.352;2022-11-24T02:38:10;17.08;;;2.95;;
28760;SDS011;15917;50.014;8.352;2022-11-24T02:40:37;20.23;;;3.30;;
28760;SDS011;15917;50.014;8.352;2022-11-24T02:45:36;17.05;;;3.60;;
28760;SDS011;15917;50.014;8.352;2022-11-24T02:48:02;20.15;;;4.28;;
28760;SDS011;15917;50.014;8.352;2022-11-24T02:50:28;22.65;;;3.40;;
28760;SDS011;15917;50.014;8.352;2022-11-24T02:52:53;13.20;;;2.88;;
28760;SDS011;15917;50.014;8.352;2022-11-24T02:55:19;24.95;;;3.15;;
28760;SDS011;15917;50.014;8.352;2022-11-24T02:57:45;19.83;;;3.00;;
28760;SDS011;15917;50.014;8.352;2022-11-24T03:00:11;15.65;;;3.38;;
28760;SDS011;15917;50.014;8.352;2022-11-24T03:02:37;26.20;;;3.28;;
28760;SDS011;15917;50.014;8.352;2022-11-24T03:05:03;19.80;;;2.88;;
28760;SDS011;15917;50.014;8.352;2022-11-24T03:07:29;19.70;;;3.83;;
28760;SDS011;15917;50.014;8.352;2022-11-24T03:09:54;25.80;;;3.60;;
28760;SDS011;15917;50.014;8.352;2022-11-24T03:12:20;16.30;;;3.15;;
28760;SDS011;15917;50.014;8.352;2022-11-24T03:14:46;12.77;;;2.90;;
28760;SDS011;15917;50.014;8.352;2022-11-24T03:17:11;12.13;;;2.85;;
28760;SDS011;15917;50.014;8.352;2022-11-24T03:19:37;23.42;;;4.75;;
28760;SDS011;15917;50.014;8.352;2022-11-24T03:22:03;20.50;;;3.13;;
28760;SDS011;15917;50.014;8.352;2022-11-24T03:24:28;19.00;;;4.07;;
28760;SDS011;15917;50.014;8.352;2022-11-24T03:26:54;16.15;;;3.40;;
28760;SDS011;15917;50.014;8.352;2022-11-24T03:29:20;11.93;;;3.53;;
28760;SDS011;15917;50.014;8.352;2022-11-24T03:31:46;16.75;;;3.72;;
28760;SDS011;15917;50.014;8.352;2022-11-24T03:34:12;16.90;;;3.22;;
28760;SDS011;15917;50.014;8.352;2022-11-24T03:36:37;26.40;;;4.75;;
28760;SDS011;15917;50.014;8.352;2022-11-24T03:39:03;18.88;;;3.60;;
28760;SDS011;15917;50.014;8.352;2022-11-24T03:41:29;18.92;;;3.83;;
28760;SDS011;15917;50.014;8.352;2022-11-24T03:43:55;19.92;;;3.55;;
28760;SDS011;15917;50.014;8.352;2022-11-24T03:46:20;15.63;;;3.75;;
28760;SDS011;15917;50.014;8.352;2022-11-24T03:48:46;18.63;;;4.03;;
28760;SDS011;15917;50.014;8.352;2022-11-24T03:51:12;22.67;;;4.43;;
28760;SDS011;15917;50.014;8.352;2022-11-24T03:53:37;19.42;;;4.38;;
28760;SDS011;15917;50.014;8.352;2022-11-24T03:56:03;25.15;;;4.80;;
28760;SDS011;15917;50.014;8.352;2022-11-24T03:58:29;19.90;;;3.80;;
28760;SDS011;15917;50.014;8.352;2022-11-24T04:00:55;28.58;;;4.72;;
28760;SDS011;15917;50.014;8.352;2022-11-24T04:03:21;23.60;;;5.10;;
28760;SDS011;15917;50.014;8.352;2022-11-24T04:05:47;21.35;;;3.83;;
28760;SDS011;15917;50.014;8.352;2022-11-24T04:08:13;25.27;;;3.75;;
28760;SDS011;15917;50.014;8.352;2022-11-24T04:10:39;18.33;;;3.45;;
28760;SDS011;15917;50.014;8.352;2022-11-24T04:13:15;22.58;;;4.63;;
28760;SDS011;15917;50.014;8.352;2022-11-24T04:15:42;22.55;;;4.20;;
28760;SDS011;15917;50.014;8.352;2022-11-24T04:18:09;27.52;;;3.88;;
28760;SDS011;15917;50.014;8.352;2022-11-24T04:20:35;21.60;;;4.47;;
28760;SDS011;15917;50.014;8.352;2022-11-24T04:23:01;21.45;;;3.65;;
28760;SDS011;15917;50.014;8.352;2022-11-24T04:25:27;28.05;;;4.97;;
28760;SDS011;15917;50.014;8.352;2022-11-24T04:27:53;17.92;;;3.97;;
28760;SDS011;15917;50.014;8.352;2022-11-24T04:30:20;34.85;;;5.40;;
28760;SDS011;15917;50.014;8.352;2022-11-24T04:32:47;26.05;;;4.43;;
28760;SDS011;15917;50.014;8.352;2022-11-24T04:35:13;28.60;;;5.20;;
28760;SDS011;15917;50.014;8.352;2022-11-24T04:37:39;29.90;;;4.45;;
28760;SDS011;15917;50.014;8.352;2022-11-24T04:40:05;19.35;;;4.28;;
28760;SDS011;15917;50.014;8.352;2022-11-24T04:44:58;23.83;;;4.35;;
28760;SDS011;15917;50.014;8.352;2022-11-24T04:47:24;30.35;;;4.63;;
28760;SDS011;15917;50.014;8.352;2022-11-24T04:49:51;25.77;;;4.25;;
28760;SDS011;15917;50.014;8.352;2022-11-24T04:52:17;21.90;;;4.55;;
28760;SDS011;15917;50.014;8.352;2022-11-24T04:54:44;16.30;;;3.47;;
28760;SDS011;15917;50.014;8.352;2022-11-24T04:57:31;36.67;;;3.72;;
28760;SDS011;15917;50.014;8.352;2022-11-24T04:59:56;29.88;;;4.80;;
28760;SDS011;15917;50.014;8.352;2022-11-24T05:02:22;33.10;;;4.07;;
28760;SDS011;15917;50.014;8.352;2022-11-24T05:04:48;19.70;;;3.28;;
28760;SDS011;15917;50.014;8.352;2022-11-24T05:07:15;27.55;;;4.15;;
28760;SDS011;15917;50.014;8.352;2022-11-24T05:09:41;21.27;;;4.43;;
28760;SDS011;15917;50.014;8.352;2022-11-24T05:12:26;26.58;;;3.65;;
28760;SDS011;15917;50.014;8.352;2022-11-24T05:14:56;30.92;;;3.60;;
28760;SDS011;15917;50.014;8.352;2022-11-24T05:17:28;33.63;;;4.38;;
28760;SDS011;15917;50.014;8.352;2022-11-24T05:20:00;30.83;;;5.30;;
28760;SDS011;15917;50.014;8.352;2022-11-24T05:22:27;30.50;;;5.68;;
28760;SDS011;15917;50.014;8.352;2022-11-24T05:24:53;24.85;;;4.45;;
28760;SDS011;15917;50.014;8.352;2022-11-24T05:27:19;32.85;;;3.58;;
28760;SDS011;15917;50.014;8.352;2022-11-24T05:29:45;31.38;;;4.15;;
28760;SDS011;15917;50.014;8.352;2022-11-24T05:32:10;25.63;;;4.38;;
28760;SDS011;15917;50.014;8.352;2022-11-24T05:34:36;21.88;;;4.00;;
28760;SDS011;15917;50.014;8.352;2022-11-24T05:37:02;30.95;;;3.78;;
28760;SDS011;15917;50.014;8.352;2022-11-24T05:39:30;31.02;;;4.13;;
28760;SDS011;15917;50.014;8.352;2022-11-24T05:41:56;29.50;;;4.88;;
28760;SDS011;15917;50.014;8.352;2022-11-24T05:44:22;27.00;;;4.07;;
28760;SDS011;15917;50.014;8.352;2022-11-24T05:46:48;21.70;;;3.70;;
28760;SDS011;15917;50.014;8.352;2022-11-24T05:49:13;26.83;;;4.30;;
28760;SDS011;15917;50.014;8.352;2022-11-24T05:51:39;30.65;;;4.82;;
28760;SDS011;15917;50.014;8.352;2022-11-24T05:54:05;31.23;;;3.80;;
28760;SDS011;15917;50.014;8.352;2022-11-24T05:56:30;26.77;;;4.22;;
28760;SDS011;15917;50.014;8.352;2022-11-24T05:58:56;27.80;;;4.40;;
28760;SDS011;15917;50.014;8.352;2022-11-24T06:01:21;33.70;;;4.55;;
28760;SDS011;15917;50.014;8.352;2022-11-24T06:03:47;37.55;;;6.32;;
28760;SDS011;15917;50.014;8.352;2022-11-24T06:06:12;22.63;;;4.28;;
28760;SDS011;15917;50.014;8.352;2022-11-24T06:08:38;35.33;;;4.20;;
28760;SDS011;15917;50.014;8.352;2022-11-24T06:11:04;40.70;;;5.13;;
28760;SDS011;15917;50.014;8.352;2022-11-24T06:13:55;33.80;;;5.03;;
28760;SDS011;15917;50.014;8.352;2022-11-24T06:16:21;31.17;;;5.07;;
28760;SDS011;15917;50.014;8.352;2022-11-24T06:18:47;35.97;;;5.50;;
28760;SDS011;15917;50.014;8.352;2022-11-24T06:21:12;32.00;;;4.90;;
28760;SDS011;15917;50.014;8.352;2022-11-24T06:23:38;26.75;;;4.10;;
28760;SDS011;15917;50.014;8.352;2022-11-24T06:26:04;28.35;;;5.65;;
28760;SDS011;15917;50.014;8.352;2022-11-24T06:28:30;29.58;;;5.03;;
28760;SDS011;15917;50.014;8.352;2022-11-24T06:31:00;29.23;;;5.00;;
28760;SDS011;15917;50.014;8.352;2022-11-24T06:33:29;31.75;;;4.80;;
28760;SDS011;15917;50.014;8.352;2022-11-24T06:36:02;22.20;;;4.68;;
28760;SDS011;15917;50.014;8.352;2022-11-24T06:38:30;28.65;;;5.68;;
28760;SDS011;15917;50.014;8.352;2022-11-24T06:40:59;23.85;;;4.45;;
28760;SDS011;15917;50.014;8.352;2022-11-24T06:43:30;32.65;;;4.05;;
28760;SDS011;15917;50.014;8.352;2022-11-24T06:45:56;39.60;;;5.15;;
28760;SDS011;15917;50.014;8.352;2022-11-24T06:48:22;32.15;;;6.00;;
28760;SDS011;15917;50.014;8.352;2022-11-24T06:50:49;24.70;;;3.88;;
28760;SDS011;15917;50.014;8.352;2022-11-24T06:53:15;29.35;;;4.40;;
28760;SDS011;15917;50.014;8.352;2022-11-24T06:55:41;28.92;;;4.25;;
28760;SDS011;15917;50.014;8.352;2022-11-24T06:58:08;26.50;;;3.90;;
28760;SDS011;15917;50.014;8.352;2022-11-24T07:00:33;28.33;;;4.45;;
28760;SDS011;15917;50.014;8.352;2022-11-24T07:03:00;36.17;;;4.25;;
28760;SDS011;15917;50.014;8.352;2022-11-24T07:05:25;38.35;;;5.13;;
28760;SDS011;15917;50.014;8.352;2022-11-24T07:07:51;20.67;;;3.78;;
28760;SDS011;15917;50.014;8.352;2022-11-24T07:10:17;32.25;;;4.60;;
28760;SDS011;15917;50.014;8.352;2022-11-24T07:12:43;23.25;;;4.43;;
28760;SDS011;15917;50.014;8.352;2022-11-24T07:15:09;26.10;;;4.53;;
28760;SDS011;15917;50.014;8.352;2022-11-24T07:17:35;34.20;;;6.35;;
28760;SDS011;15917;50.014;8.352;2022-11-24T07:20:02;29.00;;;4.38;;
28760;SDS011;15917;50.014;8.352;2022-11-24T07:22:32;26.50;;;3.78;;
28760;SDS011;15917;50.014;8.352;2022-11-24T07:24:57;23.52;;;3.72;;
28760;SDS011;15917;50.014;8.352;2022-11-24T07:27:23;28.88;;;3.63;;
28760;SDS011;15917;50.014;8.352;2022-11-24T07:29:50;23.90;;;5.10;;
28760;SDS011;15917;50.014;8.352;2022-11-24T07:32:16;34.55;;;4.55;;
28760;SDS011;15917;50.014;8.352;2022-11-24T07:34:41;22.17;;;4.70;;
28760;SDS011;15917;50.014;8.352;2022-11-24T07:37:07;25.45;;;3.85;;
28760;SDS011;15917;50.014;8.352;2022-11-24T07:39:33;35.58;;;5.13;;
28760;SDS011;15917;50.014;8.352;2022-11-24T07:41:58;24.15;;;5.38;;
28760;SDS011;15917;50.014;8.352;2022-11-24T07:44:24;24.83;;;4.35;;
28760;SDS011;15917;50.014;8.352;2022-11-24T07:46:50;21.95;;;3.58;;
28760;SDS011;15917;50.014;8.352;2022-11-24T07:49:16;30.40;;;3.90;;
28760;SDS011;15917;50.014;8.352;2022-11-24T07:51:43;37.72;;;4.35;;
28760;SDS011;15917;50.014;8.352;2022-11-24T07:54:09;33.15;;;3.83;;
28760;SDS011;15917;50.014;8.352;2022-11-24T07:56:35;17.15;;;3.03;;
28760;SDS011;15917;50.014;8.352;2022-11-24T07:59:00;20.63;;;3.70;;
28760;SDS011;15917;50.014;8.352;2022-11-24T08:01:26;25.25;;;4.00;;
28760;SDS011;15917;50.014;8.352;2022-11-24T08:03:52;25.30;;;4.20;;
28760;SDS011;15917;50.014;8.352;2022-11-24T08:06:18;33.05;;;5.32;;
28760;SDS011;15917;50.014;8.352;2022-11-24T08:08:44;31.23;;;5.18;;
28760;SDS011;15917;50.014;8.352;2022-11-24T08:11:11;34.13;;;5.28;;
28760;SDS011;15917;50.014;8.352;2022-11-24T08:13:39;32.17;;;6.22;;
28760;SDS011;15917;50.014;8.352;2022-11-24T08:16:05;27.00;;;3.70;;
28760;SDS011;15917;50.014;8.352;2022-11-24T08:18:33;28.00;;;4.88;;
28760;SDS011;15917;50.014;8.352;2022-11-24T08:20:59;27.92;;;6.00;;
28760;SDS011;15917;50.014;8.352;2022-11-24T08:23:25;13.45;;;3.45;;
28760;SDS011;15917;50.014;8.352;2022-11-24T08:25:52;23.95;;;4.70;;
28760;SDS011;15917;50.014;8.352;2022-11-24T08:28:19;26.90;;;5.50;;
28760;SDS011;15917;50.014;8.352;2022-11-24T08:30:44;29.33;;;5.03;;
28760;SDS011;15917;50.014;8.352;2022-11-24T08:33:10;21.67;;;4.40;;
28760;SDS011;15917;50.014;8.352;2022-11-24T08:38:06;24.55;;;4.32;;
28760;SDS011;15917;50.014;8.352;2022-11-24T08:40:32;13.63;;;2.30;;
28760;SDS011;15917;50.014;8.352;2022-11-24T08:42:58;10.80;;;3.33;;
28760;SDS011;15917;50.014;8.352;2022-11-24T08:45:24;27.30;;;4.80;;
28760;SDS011;15917;50.014;8.352;2022-11-24T08:47:54;26.00;;;4.80;;
28760;SDS011;15917;50.014;8.352;2022-11-24T08:50:21;23.20;;;4.15;;
28760;SDS011;15917;50.014;8.352;2022-11-24T08:52:49;19.35;;;3.58;;
28760;SDS011;15917;50.014;8.352;2022-11-24T08:55:16;25.27;;;3.85;;
28760;SDS011;15917;50.014;8.352;2022-11-24T08:57:42;15.32;;;4.13;;
28760;SDS011;15917;50.014;8.352;2022-11-24T09:00:08;21.23;;;4.28;;
28760;SDS011;15917;50.014;8.352;2022-11-24T09:02:34;20.02;;;4.60;;
28760;SDS011;15917;50.014;8.352;2022-11-24T09:04:59;30.20;;;4.22;;
28760;SDS011;15917;50.014;8.352;2022-11-24T09:07:25;28.70;;;6.72;;
28760;SDS011;15917;50.014;8.352;2022-11-24T09:09:51;25.15;;;5.72;;
28760;SDS011;15917;50.014;8.352;2022-11-24T09:12:16;22.00;;;5.15;;
28760;SDS011;15917;50.014;8.352;2022-11-24T09:14:42;27.60;;;4.90;;
28760;SDS011;15917;50.014;8.352;2022-11-24T09:17:08;30.95;;;4.15;;
28760;SDS011;15917;50.014;8.352;2022-11-24T09:19:33;24.55;;;4.10;;
28760;SDS011;15917;50.014;8.352;2022-11-24T09:21:59;19.50;;;3.75;;
28760;SDS011;15917;50.014;8.352;2022-11-24T09:24:24;15.15;;;2.97;;
28760;SDS011;15917;50.014;8.352;2022-11-24T09:26:51;20.10;;;3.55;;
28760;SDS011;15917;50.014;8.352;2022-11-24T09:29:17;15.80;;;3.80;;
28760;SDS011;15917;50.014;8.352;2022-11-24T09:31:43;22.73;;;4.45;;
28760;SDS011;15917;50.014;8.352;2022-11-24T09:34:13;22.23;;;4.45;;
28760;SDS011;15917;50.014;8.352;2022-11-24T09:36:40;26.88;;;4.82;;
28760;SDS011;15917;50.014;8.352;2022-11-24T09:39:06;23.67;;;4.78;;
28760;SDS011;15917;50.014;8.352;2022-11-24T09:44:14;17.77;;;3.40;;
28760;SDS011;15917;50.014;8.352;2022-11-24T09:50:05;13.57;;;2.85;;
28760;SDS011;15917;50.014;8.352;2022-11-24T09:52:38;18.05;;;3.47;;
28760;SDS011;15917;50.014;8.352;2022-11-24T09:55:16;14.25;;;2.90;;
28760;SDS011;15917;50.014;8.352;2022-11-24T10:00:18;9.90;;;1.88;;
28760;SDS011;15917;50.014;8.352;2022-11-24T10:02:44;17.38;;;2.55;;
28760;SDS011;15917;50.014;8.352;2022-11-24T10:05:13;14.88;;;2.25;;
28760;SDS011;15917;50.014;8.352;2022-11-24T10:07:41;14.82;;;2.38;;
28760;SDS011;15917;50.014;8.352;2022-11-24T10:12:52;14.38;;;2.83;;
28760;SDS011;15917;50.014;8.352;2022-11-24T10:26:35;7.80;;;2.80;;
28760;SDS011;15917;50.014;8.352;2022-11-24T10:29:29;13.90;;;2.70;;
28760;SDS011;15917;50.014;8.352;2022-11-24T10:31:58;9.73;;;2.60;;
28760;SDS011;15917;50.014;8.352;2022-11-24T10:34:35;13.88;;;3.22;;
28760;SDS011;15917;50.014;8.352;2022-11-24T10:39:36;22.92;;;2.65;;
28760;SDS011;15917;50.014;8.352;2022-11-24T10:44:47;10.95;;;2.60;;
28760;SDS011;15917;50.014;8.352;2022-11-24T10:47:24;11.85;;;2.03;;
28760;SDS011;15917;50.014;8.352;2022-11-24T10:50:34;10.63;;;2.03;;
28760;SDS011;15917;50.014;8.352;2022-11-24T10:52:50;12.40;;;2.78;;
28760;SDS011;15917;50.014;8.352;2022-11-24T10:58:20;8.00;;;1.80;;
28760;SDS011;15917;50.014;8.352;2022-11-24T11:00:51;10.70;;;1.63;;
28760;SDS011;15917;50.014;8.352;2022-11-24T11:03:21;8.70;;;2.05;;
28760;SDS011;15917;50.014;8.352;2022-11-24T11:05:49;9.57;;;1.48;;
28760;SDS011;15917;50.014;8.352;2022-11-24T11:08:35;14.23;;;2.15;;
28760;SDS011;15917;50.014;8.352;2022-11-24T11:14:06;13.30;;;1.98;;
28760;SDS011;15917;50.014;8.352;2022-11-24T11:22:01;11.30;;;1.60;;
28760;SDS011;15917;50.014;8.352;2022-11-24T11:24:33;13.82;;;1.80;;
28760;SDS011;15917;50.014;8.352;2022-11-24T11:27:04;11.32;;;1.92;;
28760;SDS011;15917;50.014;8.352;2022-11-24T11:29:40;9.85;;;1.52;;
28760;SDS011;15917;50.014;8.352;2022-11-24T11:32:25;6.97;;;2.05;;
28760;SDS011;15917;50.014;8.352;2022-11-24T11:34:55;12.35;;;1.80;;
28760;SDS011;15917;50.014;8.352;2022-11-24T11:37:26;17.58;;;3.00;;
28760;SDS011;15917;50.014;8.352;2022-11-24T11:39:55;9.32;;;1.40;;
28760;SDS011;15917;50.014;8.352;2022-11-24T11:47:44;15.45;;;1.50;;
28760;SDS011;15917;50.014;8.352;2022-11-24T11:58:05;14.35;;;1.63;;
28760;SDS011;15917;50.014;8.352;2022-11-24T12:00:38;14.20;;;1.65;;
28760;SDS011;15917;50.014;8.352;2022-11-24T12:06:08;13.68;;;1.55;;
28760;SDS011;15917;50.014;8.352;2022-11-24T12:09:04;9.63;;;2.08;;
28760;SDS011;15917;50.014;8.352;2022-11-24T12:20:16;7.40;;;1.90;;
28760;SDS011;15917;50.014;8.352;2022-11-24T12:25:33;17.20;;;2.08;;
28760;SDS011;15917;50.014;8.352;2022-11-24T12:31:02;8.57;;;1.88;;
28760;SDS011;15917;50.014;8.352;2022-11-24T12:36:44;19.98;;;2.53;;
28760;SDS011;15917;50.014;8.352;2022-11-24T12:44:40;7.38;;;1.50;;
28760;SDS011;15917;50.014;8.352;2022-11-24T12:50:17;8.55;;;1.98;;
28760;SDS011;15917;50.014;8.352;2022-11-24T12:53:28;11.70;;;1.50;;
28760;SDS011;15917;50.014;8.352;2022-11-24T12:55:33;9.60;;;1.70;;
28760;SDS011;15917;50.014;8.352;2022-11-24T12:58:06;8.70;;;1.65;;
28760;SDS011;15917;50.014;8.352;2022-11-24T13:06:00;11.13;;;1.48;;
28760;SDS011;15917;50.014;8.352;2022-11-24T13:08:40;13.23;;;2.45;;
28760;SDS011;15917;50.014;8.352;2022-11-24T13:14:21;12.40;;;1.73;;
28760;SDS011;15917;50.014;8.352;2022-11-24T13:16:59;12.50;;;1.73;;
28760;SDS011;15917;50.014;8.352;2022-11-24T13:19:31;10.20;;;1.85;;
28760;SDS011;15917;50.014;8.352;2022-11-24T13:24:31;8.52;;;1.50;;
28760;SDS011;15917;50.014;8.352;2022-11-24T13:29:43;7.30;;;1.27;;
28760;SDS011;15917;50.014;8.352;2022-11-24T13:37:18;5.63;;;1.33;;
28760;SDS011;15917;50.014;8.352;2022-11-24T13:53:33;8.77;;;1.23;;
28760;SDS011;15917;50.014;8.352;2022-11-24T14:09:13;11.05;;;2.67;;
28760;SDS011;15917;50.014;8.352;2022-11-24T14:12:05;9.35;;;1.40;;
28760;SDS011;15917;50.014;8.352;2022-11-24T14:14:37;7.30;;;1.30;;
28760;SDS011;15917;50.014;8.352;2022-11-24T14:17:25;8.32;;;1.30;;
28760;SDS011;15917;50.014;8.352;2022-11-24T14:19:53;7.80;;;1.15;;
28760;SDS011;15917;50.014;8.352;2022-11-24T14:24:50;6.13;;;1.48;;
28760;SDS011;15917;50.014;8.352;2022-11-24T14:27:19;10.48;;;1.50;;
28760;SDS011;15917;50.014;8.352;2022-11-24T14:29:50;17.65;;;1.95;;
28760;SDS011;15917;50.014;8.352;2022-11-24T14:32:20;11.65;;;1.92;;
28760;SDS011;15917;50.014;8.352;2022-11-24T14:34:46;15.18;;;1.77;;
28760;SDS011;15917;50.014;8.352;2022-11-24T14:37:12;13.85;;;2.05;;
28760;SDS011;15917;50.014;8.352;2022-11-24T14:39:41;9.30;;;1.80;;
28760;SDS011;15917;50.014;8.352;2022-11-24T14:42:15;9.85;;;2.65;;
28760;SDS011;15917;50.014;8.352;2022-11-24T14:44:45;12.80;;;2.20;;
28760;SDS011;15917;50.014;8.352;2022-11-24T14:47:20;9.93;;;2.05;;
28760;SDS011;15917;50.014;8.352;2022-11-24T14:49:51;10.10;;;2.45;;
28760;SDS011;15917;50.014;8.352;2022-11-24T14:52:18;12.02;;;2.03;;
28760;SDS011;15917;50.014;8.352;2022-11-24T14:54:47;15.65;;;2.42;;
28760;SDS011;15917;50.014;8.352;2022-11-24T14:57:23;12.65;;;2.47;;
28760;SDS011;15917;50.014;8.352;2022-11-24T15:00:04;13.35;;;1.95;;
28760;SDS011;15917;50.014;8.352;2022-11-24T15:02:49;14.68;;;2.45;;
28760;SDS011;15917;50.014;8.352;2022-11-24T15:05:19;14.82;;;3.08;;
28760;SDS011;15917;50.014;8.352;2022-11-24T15:07:46;14.90;;;2.75;;
28760;SDS011;15917;50.014;8.352;2022-11-24T15:10:31;12.00;;;2.20;;
28760;SDS011;15917;50.014;8.352;2022-11-24T15:13:00;12.65;;;3.53;;
28760;SDS011;15917;50.014;8.352;2022-11-24T15:15:30;27.05;;;3.58;;
28760;SDS011;15917;50.014;8.352;2022-11-24T15:17:58;25.67;;;3.72;;
28760;SDS011;15917;50.014;8.352;2022-11-24T15:20:36;31.95;;;5.22;;
28760;SDS011;15917;50.014;8.352;2022-11-24T15:25:42;27.67;;;4.57;;
28760;SDS011;15917;50.014;8.352;2022-11-24T15:28:08;21.25;;;4.13;;
28760;SDS011;15917;50.014;8.352;2022-11-24T15:30:35;24.77;;;4.47;;
28760;SDS011;15917;50.014;8.352;2022-11-24T15:33:01;20.13;;;3.83;;
28760;SDS011;15917;50.014;8.352;2022-11-24T15:35:28;17.63;;;3.17;;
28760;SDS011;15917;50.014;8.352;2022-11-24T15:37:55;33.95;;;4.78;;
28760;SDS011;15917;50.014;8.352;2022-11-24T15:40:21;31.38;;;4.40;;
28760;SDS011;15917;50.014;8.352;2022-11-24T15:42:50;22.52;;;4.25;;
28760;SDS011;15917;50.014;8.352;2022-11-24T15:45:17;26.77;;;5.30;;
28760;SDS011;15917;50.014;8.352;2022-11-24T15:47:44;26.00;;;4.15;;
28760;SDS011;15917;50.014;8.352;2022-11-24T15:50:10;22.17;;;4.05;;
28760;SDS011;15917;50.014;8.352;2022-11-24T15:52:36;20.50;;;5.30;;
28760;SDS011;15917;50.014;8.352;2022-11-24T15:55:02;24.98;;;4.97;;
28760;SDS011;15917;50.014;8.352;2022-11-24T15:57:29;29.55;;;5.28;;
28760;SDS011;15917;50.014;8.352;2022-11-24T16:02:22;19.42;;;3.25;;
28760;SDS011;15917;50.014;8.352;2022-11-24T16:04:48;28.23;;;4.82;;
28760;SDS011;15917;50.014;8.352;2022-11-24T16:07:13;28.90;;;7.03;;
28760;SDS011;15917;50.014;8.352;2022-11-24T16:09:39;21.63;;;5.40;;
28760;SDS011;15917;50.014;8.352;2022-11-24T16:12:05;23.33;;;4.30;;
28760;SDS011;15917;50.014;8.352;2022-11-24T16:14:32;22.58;;;3.33;;
28760;SDS011;15917;50.014;8.352;2022-11-24T16:17:01;17.05;;;2.80;;
28760;SDS011;15917;50.014;8.352;2022-11-24T16:19:27;13.15;;;2.72;;
28760;SDS011;15917;50.014;8.352;2022-11-24T16:21:52;18.27;;;3.25;;
28760;SDS011;15917;50.014;8.352;2022-11-24T16:24:18;16.92;;;4.03;;
28760;SDS011;15917;50.014;8.352;2022-11-24T16:26:43;13.02;;;3.58;;
28760;SDS011;15917;50.014;8.352;2022-11-24T16:29:09;15.40;;;2.50;;
28760;SDS011;15917;50.014;8.352;2022-11-24T16:31:35;15.80;;;2.90;;
28760;SDS011;15917;50.014;8.352;2022-11-24T16:34:01;20.45;;;3.33;;
28760;SDS011;15917;50.014;8.352;2022-11-24T16:36:26;15.20;;;3.47;;
28760;SDS011;15917;50.014;8.352;2022-11-24T16:38:52;17.38;;;2.75;;
28760;SDS011;15917;50.014;8.352;2022-11-24T16:41:19;19.70;;;3.22;;
28760;SDS011;15917;50.014;8.352;2022-11-24T16:43:46;18.02;;;4.40;;
28760;SDS011;15917;50.014;8.352;2022-11-24T16:46:21;15.88;;;3.20;;
28760;SDS011;15917;50.014;8.352;2022-11-24T16:48:52;18.17;;;3.72;;
28760;SDS011;15917;50.014;8.352;2022-11-24T16:51:20;20.73;;;4.43;;
28760;SDS011;15917;50.014;8.352;2022-11-24T16:53:47;41.03;;;5.50;;
28760;SDS011;15917;50.014;8.352;2022-11-24T16:56:13;14.00;;;3.47;;
28760;SDS011;15917;50.014;8.352;2022-11-24T16:58:40;27.98;;;3.63;;
28760;SDS011;15917;50.014;8.352;2022-11-24T17:01:10;24.35;;;3.35;;
28760;SDS011;15917;50.014;8.352;2022-11-24T17:03:37;19.42;;;3.75;;
28760;SDS011;15917;50.014;8.352;2022-11-24T17:06:04;22.48;;;4.70;;
28760;SDS011;15917;50.014;8.352;2022-11-24T17:11:04;22.50;;;3.92;;
28760;SDS011;15917;50.014;8.352;2022-11-24T17:13:34;19.23;;;3.85;;